createdAt,value
2022-09-05T00:01:05.252Z,101344.08
2022-09-05T00:06:10.310Z,101343.42
2022-09-05T00:11:43.106Z,101343.23
2022-09-05T00:16:43.410Z,101338.58
2022-09-05T00:24:37.052Z,101341.77
2022-09-05T00:27:19.560Z,101340.96
2022-09-05T00:32:34.216Z,101343.98
2022-09-05T00:37:41.264Z,101342.30
2022-09-05T00:42:47.764Z,101344.50
2022-09-05T00:48:00.609Z,101344.41
2022-09-05T00:53:07.994Z,101346.70
2022-09-05T00:58:27.255Z,101341.35
2022-09-05T01:03:41.174Z,101337.41
2022-09-05T01:08:47.022Z,101336.61
2022-09-05T01:13:52.280Z,101332.31
2022-09-05T01:18:59.560Z,101332.18
2022-09-05T01:24:06.740Z,101326.98
2022-09-05T01:29:19.719Z,101328.78
2022-09-05T01:34:31.922Z,101325.39
2022-09-05T01:40:12.458Z,101327.36
2022-09-05T01:45:06.813Z,101328.79
2022-09-05T01:50:12.023Z,101331.05
2022-09-05T01:55:19.684Z,101330.73
2022-09-05T02:00:30.338Z,101330.73
2022-09-05T02:05:48.675Z,101336.27
2022-09-05T02:10:56.751Z,101339.77
2022-09-05T02:16:04.029Z,101338.09
2022-09-05T02:21:11.509Z,101340.08
2022-09-05T02:26:19.220Z,101340.78
2022-09-05T02:31:26.469Z,101345.09
2022-09-05T02:36:38.335Z,101345.44
2022-09-05T02:45:07.591Z,101345.31
2022-09-05T02:47:15.283Z,101346.92
2022-09-05T02:57:29.794Z,101347.48
2022-09-05T02:58:07.366Z,101341.05
2022-09-05T03:03:18.530Z,101343.18
2022-09-05T03:08:26.824Z,101346.52
2022-09-05T03:13:48.818Z,101352.81
2022-09-05T03:19:00.759Z,101355.27
2022-09-05T03:24:05.002Z,101356.83
2022-09-05T03:29:25.314Z,101358.21
2022-09-05T03:34:29.559Z,101358.23
2022-09-05T03:39:36.782Z,101357.91
2022-09-05T03:44:44.267Z,101356.05
2022-09-05T03:52:42.862Z,101361.26
2022-09-05T03:57:24.925Z,101361.08
2022-09-05T04:00:52.808Z,101360.49
2022-09-05T04:08:16.192Z,101364.65
2022-09-05T04:11:47.337Z,101380.27
2022-09-05T04:17:11.888Z,101372.61
2022-09-05T04:22:20.469Z,101379.33
2022-09-05T04:27:27.966Z,101379.98
2022-09-05T04:32:35.465Z,101381.33
2022-09-05T04:37:48.755Z,101388.69
2022-09-05T04:49:37.921Z,101393.77
2022-09-05T04:54:47.517Z,101398.46
2022-09-05T05:06:00.143Z,101405.05
2022-09-05T05:06:09.763Z,101410.02
2022-09-05T05:17:29.858Z,101414.89
2022-09-05T05:18:15.331Z,101425.27
2022-09-05T05:21:51.900Z,101429.33
2022-09-05T05:26:57.329Z,101423.48
2022-09-05T05:32:02.867Z,101424.14
2022-09-05T05:37:07.231Z,101423.70
2022-09-05T05:42:20.536Z,101418.38
2022-09-05T05:47:32.342Z,101425.83
2022-09-05T05:52:39.897Z,101434.06
2022-09-05T05:57:57.179Z,101440.54
2022-09-05T06:03:26.918Z,101439.63
2022-09-05T06:14:42.744Z,101442.70
2022-09-05T06:15:00.624Z,101451.02
2022-09-05T06:19:43.601Z,101452.35
2022-09-05T06:25:16.979Z,101455.48
2022-09-05T06:30:22.888Z,101452.63
2022-09-05T06:35:31.731Z,101453.84
2022-09-05T06:40:36.993Z,101452.79
2022-09-05T06:45:42.317Z,101458.20
2022-09-05T06:51:08.362Z,101458.91
2022-09-05T06:56:25.925Z,101458.11
2022-09-05T07:01:59.910Z,101462.17
2022-09-05T07:07:06.345Z,101458.08
2022-09-05T07:12:15.418Z,101454.51
2022-09-05T07:17:21.684Z,101465.04
2022-09-05T07:22:47.445Z,101469.08
2022-09-05T07:28:26.352Z,101467.80
2022-09-05T07:33:21.284Z,101472.95
2022-09-05T07:38:38.234Z,101477.91
2022-09-05T07:43:57.679Z,101483.63
2022-09-05T07:49:05.713Z,101482.30
2022-09-05T07:56:54.088Z,101488.04
2022-09-05T07:59:46.942Z,101492.96
2022-09-05T08:04:51.394Z,101493.20
2022-09-05T08:10:09.893Z,101488.67
2022-09-05T08:15:18.812Z,101493.77
2022-09-05T08:20:29.024Z,101493.36
2022-09-05T08:25:56.620Z,101495.55
2022-09-05T08:31:06.566Z,101487.72
2022-09-05T08:36:14.227Z,101482.44
2022-09-05T08:41:30.374Z,101481.44
2022-09-05T08:46:50.645Z,101470.21
2022-09-05T08:52:02.381Z,101461.09
2022-09-05T08:57:06.590Z,101466.27
2022-09-05T09:02:47.573Z,101463.37
2022-09-05T09:07:52.461Z,101456.87
2022-09-05T09:12:57.925Z,101458.38
2022-09-05T09:18:10.077Z,101449.52
2022-09-05T09:23:38.964Z,101443.80
2022-09-05T09:28:47.200Z,101445.60
2022-09-05T09:34:05.386Z,101439.35
2022-09-05T09:39:37.108Z,101437.00
2022-09-05T09:44:46.289Z,101437.35
2022-09-05T09:50:01.341Z,101437.20
2022-09-05T09:55:08.003Z,101440.09
2022-09-05T10:00:23.883Z,101442.32
2022-09-05T10:10:39.581Z,101439.70
2022-09-05T10:16:40.617Z,101430.93
2022-09-05T10:21:48.121Z,101423.06
2022-09-05T10:27:05.374Z,101420.97
2022-09-05T10:35:02.849Z,101415.77
2022-09-05T10:37:51.661Z,101419.58
2022-09-05T10:43:02.709Z,101418.56
2022-09-05T10:48:07.175Z,101416.23
2022-09-05T10:53:22.895Z,101414.64
2022-09-05T11:00:54.473Z,101411.95
2022-09-05T11:04:00.089Z,101412.01
2022-09-05T11:09:12.210Z,101405.53
2022-09-05T11:14:26.536Z,101408.34
2022-09-05T11:19:34.537Z,101407.56
2022-09-05T11:24:39.817Z,101408.27
2022-09-05T11:29:47.893Z,101401.16
2022-09-05T11:40:10.546Z,101398.16
2022-09-05T11:41:08.002Z,101397.61
2022-09-05T11:46:17.187Z,101386.28
2022-09-05T11:51:34.415Z,101385.13
2022-09-05T11:56:50.494Z,101381.75
2022-09-05T12:02:23.239Z,101374.66
2022-09-05T12:07:32.198Z,101379.41
2022-09-05T12:12:44.097Z,101371.58
2022-09-05T12:17:51.373Z,101373.21
2022-09-05T12:23:02.351Z,101371.88
2022-09-05T12:28:54.613Z,101363.70
2022-09-05T12:36:01.711Z,101359.50
2022-09-05T12:41:31.938Z,101359.06
2022-09-05T12:44:44.390Z,101354.73
2022-09-05T12:49:56.983Z,101343.63
2022-09-05T12:55:09.177Z,101339.73
2022-09-05T13:03:06.942Z,101332.44
2022-09-05T13:05:45.956Z,101328.76
2022-09-05T13:14:50.428Z,101334.71
2022-09-05T13:16:23.016Z,101323.90
2022-09-05T13:21:29.618Z,101316.39
2022-09-05T13:26:37.822Z,101317.04
2022-09-05T13:38:03.575Z,101318.23
2022-09-05T13:38:20.159Z,101321.98
2022-09-05T13:42:40.215Z,101313.50
2022-09-05T13:47:51.278Z,101316.95
2022-09-05T13:52:55.538Z,101314.25
2022-09-05T13:58:07.051Z,101321.27
2022-09-05T14:03:38.027Z,101317.42
2022-09-05T14:08:40.013Z,101316.13
2022-09-05T14:13:47.301Z,101312.01
2022-09-05T14:18:54.983Z,101314.02
2022-09-05T14:24:04.752Z,101308.09
2022-09-05T14:29:13.929Z,101307.95
2022-09-05T14:37:48.808Z,101300.97
2022-09-05T14:39:42.557Z,101298.48
2022-09-05T14:44:55.032Z,101297.38
2022-09-05T14:50:00.911Z,101295.74
2022-09-05T14:55:21.723Z,101299.25
2022-09-05T15:02:57.241Z,101296.77
2022-09-05T15:05:49.890Z,101292.46
2022-09-05T15:12:23.371Z,101288.75
2022-09-05T15:16:17.678Z,101287.69
2022-09-05T15:21:33.784Z,101286.63
2022-09-05T15:26:46.547Z,101286.92
2022-09-05T15:31:53.346Z,101284.92
2022-09-05T15:37:22.497Z,101277.48
2022-09-05T15:42:29.244Z,101276.73
2022-09-05T15:47:33.124Z,101272.90
2022-09-05T15:52:40.431Z,101272.11
2022-09-05T15:57:47.196Z,101270.38
2022-09-05T16:02:53.041Z,101269.70
2022-09-05T16:10:45.159Z,101264.98
2022-09-05T16:13:52.650Z,101264.13
2022-09-05T16:23:34.073Z,101259.13
2022-09-05T16:24:46.424Z,101247.45
2022-09-05T16:29:50.458Z,101252.23
2022-09-05T16:34:56.357Z,101244.51
2022-09-05T16:40:01.841Z,101240.07
2022-09-05T16:45:09.716Z,101233.98
2022-09-05T16:50:16.558Z,101231.85
2022-09-05T16:55:28.929Z,101229.52
2022-09-05T17:00:41.359Z,101226.94
2022-09-05T17:05:46.360Z,101223.66
2022-09-05T17:10:58.207Z,101230.91
2022-09-05T17:16:05.285Z,101229.33
2022-09-05T17:21:11.160Z,101224.44
2022-09-05T17:29:16.955Z,101228.66
2022-09-05T17:32:01.782Z,101228.33
2022-09-05T17:37:11.135Z,101233.83
2022-09-05T17:42:17.958Z,101231.96
2022-09-05T17:47:35.732Z,101235.55
2022-09-05T17:52:42.254Z,101243.70
2022-09-05T17:57:47.275Z,101246.06
2022-09-05T18:02:52.881Z,101249.50
2022-09-05T18:07:57.835Z,101251.59
2022-09-05T18:13:32.422Z,101255.34
2022-09-05T18:19:32.293Z,101257.52
2022-09-05T18:24:03.665Z,101257.42
2022-09-05T18:29:15.389Z,101262.88
2022-09-05T18:34:18.922Z,101265.75
2022-09-05T18:39:23.453Z,101273.13
2022-09-05T18:44:29.717Z,101271.95
2022-09-05T18:50:21.963Z,101276.85
2022-09-05T18:55:34.035Z,101283.40
2022-09-05T19:00:36.634Z,101278.05
2022-09-05T19:05:50.718Z,101280.77
2022-09-05T19:10:58.805Z,101284.63
2022-09-05T19:16:42.538Z,101282.80
2022-09-05T19:21:38.949Z,101279.39
2022-09-05T19:26:42.197Z,101282.70
2022-09-05T19:37:05.620Z,101280.05
2022-09-05T19:37:30.512Z,101281.84
2022-09-05T19:47:27.670Z,101278.66
2022-09-05T19:48:08.484Z,101273.86
2022-09-05T19:53:13.020Z,101269.92
2022-09-05T19:58:20.153Z,101265.40
2022-09-05T20:03:23.138Z,101268.95
2022-09-05T20:08:28.367Z,101266.15
2022-09-05T20:13:30.672Z,101264.83
2022-09-05T20:18:36.458Z,101266.56
2022-09-05T20:23:42.804Z,101261.51
2022-09-05T20:28:46.150Z,101268.86
2022-09-05T20:33:51.838Z,101270.09
2022-09-05T20:43:21.348Z,101265.70
2022-09-05T20:44:25.028Z,101271.64
2022-09-05T20:54:08.538Z,101270.89
2022-09-05T20:54:53.245Z,101264.02
2022-09-05T20:59:56.260Z,101270.72
2022-09-05T21:05:06.907Z,101267.29
2022-09-05T21:10:22.621Z,101263.60
2022-09-05T21:15:52.638Z,101265.73
2022-09-05T21:20:56.162Z,101268.67
2022-09-05T21:25:59.425Z,101263.20
2022-09-05T21:31:03.351Z,101263.77
2022-09-05T21:36:06.569Z,101259.82
2022-09-05T21:41:09.176Z,101262.90
2022-09-05T21:47:42.447Z,101265.13
2022-09-05T21:51:36.769Z,101260.98
2022-09-05T21:59:17.171Z,101255.36
2022-09-05T22:02:06.987Z,101251.06
2022-09-05T22:07:14.164Z,101253.84
2022-09-05T22:12:30.036Z,101251.77
2022-09-05T22:17:34.667Z,101245.91
2022-09-05T22:22:38.591Z,101252.50
2022-09-05T22:27:44.128Z,101253.33
2022-09-05T22:32:46.430Z,101247.16
2022-09-05T22:37:49.307Z,101243.36
2022-09-05T22:43:03.801Z,101237.60
2022-09-05T22:48:07.868Z,101240.57
2022-09-05T22:53:10.405Z,101237.52
2022-09-05T22:58:13.772Z,101236.20
2022-09-05T23:03:16.134Z,101231.89
2022-09-05T23:08:18.445Z,101240.41
2022-09-05T23:13:20.791Z,101242.73
2022-09-05T23:18:23.204Z,101237.93
2022-09-05T23:23:25.784Z,101237.88
2022-09-05T23:28:28.305Z,101225.27
2022-09-05T23:33:31.059Z,101224.74
2022-09-05T23:38:33.547Z,101227.21
2022-09-05T23:43:35.993Z,101227.10
2022-09-05T23:48:38.320Z,101224.08
2022-09-05T23:53:40.902Z,101224.84
2022-09-05T23:58:43.220Z,101226.09
